Time;durP1;ratioP1;P1;durP2;ratioP2;P2;SDS_P1;SDS_P2;PMS_P1;PMS_P2;Temp;Humidity;BMP_temperature;BMP_pressure;BME280_temperature;BME280_humidity;BME280_pressure;Samples;Min_cycle;Max_cycle;Signal;HPM_P1;HPM_P2
2021/03/07 00:04:11;;;;;;;15.07;11.70;;;;;;;;;;4943565;28;20210;-80
2021/03/07 00:07:10;;;;;;;12.17;10.47;;;;;;;;;;4944873;28;20218;-79
2021/03/07 00:09:43;;;;;;;15.63;11.17;;;;;;;;;;4932833;29;20215;-79
2021/03/07 00:12:12;;;;;;;14.93;11.23;;;;;;;;;;4922405;28;20215;-79
2021/03/07 00:14:48;;;;;;;14.27;10.73;;;;;;;;;;4936055;29;20229;-78
2021/03/07 00:17:49;;;;;;;15.77;11.57;;;;;;;;;;4922104;29;20195;-78
2021/03/07 00:20:19;;;;;;;12.63;9.97;;;;;;;;;;4938155;29;20197;-79
2021/03/07 00:22:48;;;;;;;13.97;11.40;;;;;;;;;;4922493;29;20202;-79
2021/03/07 00:28:49;;;;;;;16.27;11.70;;;;;;;;;;4859190;29;20236;-79
2021/03/07 00:31:39;;;;;;;12.87;10.87;;;;;;;;;;4896161;29;20634;-78
2021/03/07 00:40:50;;;;;;;16.43;11.73;;;;;;;;;;5166032;23;20275;-79
2021/03/07 00:43:21;;;;;;;13.83;10.97;;;;;;;;;;4864856;29;20238;-78
2021/03/07 00:46:01;;;;;;;13.30;11.20;;;;;;;;;;4865851;29;20449;-79
2021/03/07 00:48:32;;;;;;;17.63;11.00;;;;;;;;;;4864655;29;20661;-79
2021/03/07 00:51:06;;;;;;;14.10;10.90;;;;;;;;;;4878216;29;20238;-79
2021/03/07 00:53:51;;;;;;;13.43;10.50;;;;;;;;;;4899188;29;20243;-79
2021/03/07 00:56:32;;;;;;;12.43;10.20;;;;;;;;;;4900075;29;20237;-78
2021/03/07 00:59:27;;;;;;;12.27;9.80;;;;;;;;;;4884314;29;20211;-79
2021/03/07 01:01:58;;;;;;;12.50;10.77;;;;;;;;;;4892568;29;20232;-79
2021/03/07 01:05:08;;;;;;;12.50;10.30;;;;;;;;;;4881735;29;20609;-79
2021/03/07 01:08:27;;;;;;;13.63;9.93;;;;;;;;;;4882901;29;20240;-79
2021/03/07 01:11:01;;;;;;;14.77;10.77;;;;;;;;;;4880999;29;20232;-79
2021/03/07 01:13:31;;;;;;;15.63;10.23;;;;;;;;;;4890715;29;20598;-79
2021/03/07 01:16:00;;;;;;;16.43;11.00;;;;;;;;;;5313083;23;20207;-80
2021/03/07 01:22:12;;;;;;;14.20;11.30;;;;;;;;;;4901384;29;20211;-80
2021/03/07 01:24:58;;;;;;;12.93;10.83;;;;;;;;;;4899454;29;20643;-78
2021/03/07 01:27:35;;;;;;;13.57;10.23;;;;;;;;;;4885780;29;20208;-78
2021/03/07 01:30:19;;;;;;;13.57;10.63;;;;;;;;;;4856310;29;20188;-78
2021/03/07 01:33:07;;;;;;;14.03;10.80;;;;;;;;;;4877973;29;20211;-79
2021/03/07 01:35:44;;;;;;;13.70;9.77;;;;;;;;;;4884989;29;20243;-78
2021/03/07 01:38:17;;;;;;;12.33;9.80;;;;;;;;;;4862374;29;20216;-78
2021/03/07 01:40:56;;;;;;;14.07;10.80;;;;;;;;;;4865088;29;20213;-77
2021/03/07 01:43:48;;;;;;;13.00;10.10;;;;;;;;;;4847898;29;20684;-78
2021/03/07 01:46:28;;;;;;;12.40;9.73;;;;;;;;;;4872916;29;20212;-78
2021/03/07 01:49:04;;;;;;;11.37;8.83;;;;;;;;;;4866742;29;20226;-79
2021/03/07 01:51:33;;;;;;;13.40;9.10;;;;;;;;;;4867442;29;20261;-81
2021/03/07 01:54:02;;;;;;;12.83;10.20;;;;;;;;;;4888082;29;20231;-79
2021/03/07 01:56:36;;;;;;;13.07;9.40;;;;;;;;;;5707578;23;20210;-79
2021/03/07 01:59:05;;;;;;;12.80;10.37;;;;;;;;;;4880355;29;20251;-83
2021/03/07 02:01:34;;;;;;;10.93;9.20;;;;;;;;;;4855104;29;20200;-79
2021/03/07 02:04:03;;;;;;;12.10;9.40;;;;;;;;;;4876553;29;20201;-79
2021/03/07 02:06:33;;;;;;;11.77;9.60;;;;;;;;;;4845350;29;20235;-79
2021/03/07 02:09:03;;;;;;;11.17;8.87;;;;;;;;;;4844368;29;20235;-78
2021/03/07 02:11:32;;;;;;;11.07;8.10;;;;;;;;;;4874486;29;20240;-78
2021/03/07 02:14:02;;;;;;;12.20;8.83;;;;;;;;;;4842186;29;20222;-78
2021/03/07 02:16:30;;;;;;;12.93;8.77;;;;;;;;;;4843653;29;20233;-78
2021/03/07 02:18:59;;;;;;;12.77;8.87;;;;;;;;;;4861253;29;20209;-79
2021/03/07 02:21:33;;;;;;;10.73;8.00;;;;;;;;;;4861088;29;20213;-79
2021/03/07 02:24:28;;;;;;;10.77;8.40;;;;;;;;;;4862077;29;20216;-78
2021/03/07 02:26:57;;;;;;;11.00;8.70;;;;;;;;;;4856565;29;20208;-78
2021/03/07 02:29:26;;;;;;;11.63;8.67;;;;;;;;;;4880218;29;20204;-79
2021/03/07 02:31:57;;;;;;;10.47;8.60;;;;;;;;;;4876509;29;20731;-78
2021/03/07 02:34:31;;;;;;;12.27;9.17;;;;;;;;;;4867451;29;20231;-79
2021/03/07 02:37:04;;;;;;;12.27;8.70;;;;;;;;;;4873672;29;20225;-79
2021/03/07 02:39:35;;;;;;;12.63;8.30;;;;;;;;;;4865322;29;20210;-78
2021/03/07 02:42:05;;;;;;;10.50;7.80;;;;;;;;;;4866705;29;20222;-78
2021/03/07 02:44:36;;;;;;;11.87;8.97;;;;;;;;;;4850011;29;20216;-79
2021/03/07 02:47:06;;;;;;;11.27;9.00;;;;;;;;;;4870034;29;20198;-79
2021/03/07 02:49:35;;;;;;;12.80;9.03;;;;;;;;;;4899153;29;20228;-80
2021/03/07 02:52:05;;;;;;;11.47;8.77;;;;;;;;;;4884249;29;20209;-81
2021/03/07 02:54:35;;;;;;;12.97;9.00;;;;;;;;;;4867942;29;20224;-79
2021/03/07 02:57:05;;;;;;;12.67;9.40;;;;;;;;;;4884484;29;20229;-80
2021/03/07 02:59:35;;;;;;;10.50;8.70;;;;;;;;;;4881872;29;20244;-79
2021/03/07 03:02:05;;;;;;;11.33;8.83;;;;;;;;;;4866328;29;20214;-79
2021/03/07 03:04:35;;;;;;;11.20;9.30;;;;;;;;;;4863943;29;20552;-78
2021/03/07 03:07:04;;;;;;;14.30;9.67;;;;;;;;;;4877962;29;20210;-79
2021/03/07 03:09:38;;;;;;;12.77;9.73;;;;;;;;;;4863891;29;20276;-80
2021/03/07 03:12:08;;;;;;;12.63;9.90;;;;;;;;;;4848935;29;20229;-80
2021/03/07 03:14:36;;;;;;;14.30;10.10;;;;;;;;;;4863867;29;20202;-80
2021/03/07 03:17:06;;;;;;;15.43;10.00;;;;;;;;;;4864474;29;20247;-79
2021/03/07 03:19:34;;;;;;;12.83;10.03;;;;;;;;;;4883919;29;20233;-80
2021/03/07 03:22:03;;;;;;;12.47;9.73;;;;;;;;;;4889326;29;20204;-80
2021/03/07 03:24:36;;;;;;;12.47;9.40;;;;;;;;;;4888950;29;20185;-83
2021/03/07 03:33:32;;;;;;;12.03;9.73;;;;;;;;;;5144308;23;20235;-79
2021/03/07 03:39:09;;;;;;;11.87;9.00;;;;;;;;;;5601506;23;20236;-79
2021/03/07 03:41:38;;;;;;;10.40;8.63;;;;;;;;;;4892565;29;20695;-79
2021/03/07 03:44:09;;;;;;;10.97;8.50;;;;;;;;;;4883275;29;20240;-79
2021/03/07 03:46:40;;;;;;;11.10;8.87;;;;;;;;;;4894420;29;20232;-78
2021/03/07 03:49:15;;;;;;;10.20;8.57;;;;;;;;;;4864930;29;20206;-79
2021/03/07 03:51:45;;;;;;;11.43;8.60;;;;;;;;;;4863390;29;20231;-79
2021/03/07 03:54:13;;;;;;;10.03;8.40;;;;;;;;;;4864166;29;20570;-78
2021/03/07 04:02:56;;;;;;;13.20;8.67;;;;;;;;;;5159816;23;20601;-80
2021/03/07 04:05:28;;;;;;;10.23;8.33;;;;;;;;;;4900254;29;20239;-82
2021/03/07 04:08:00;;;;;;;10.53;8.77;;;;;;;;;;4883900;29;20211;-80
2021/03/07 04:10:29;;;;;;;10.20;8.53;;;;;;;;;;4898946;29;20235;-80
2021/03/07 04:12:59;;;;;;;14.07;9.23;;;;;;;;;;4913578;29;20746;-78
2021/03/07 04:15:28;;;;;;;11.20;8.10;;;;;;;;;;4865715;29;20232;-80
2021/03/07 04:17:57;;;;;;;9.50;8.13;;;;;;;;;;4875121;29;20236;-79
2021/03/07 04:20:27;;;;;;;10.27;8.20;;;;;;;;;;4882766;29;20239;-79
2021/03/07 04:22:56;;;;;;;11.10;8.07;;;;;;;;;;4900831;29;20231;-79
2021/03/07 04:25:24;;;;;;;12.03;8.13;;;;;;;;;;4885560;29;20254;-79
2021/03/07 04:27:53;;;;;;;12.77;8.33;;;;;;;;;;4899740;29;20204;-78
2021/03/07 04:30:23;;;;;;;10.73;8.80;;;;;;;;;;4884256;29;20220;-79
2021/03/07 04:32:53;;;;;;;12.07;9.10;;;;;;;;;;4883827;29;20232;-78
2021/03/07 04:35:22;;;;;;;9.77;7.97;;;;;;;;;;4883173;29;20232;-79
2021/03/07 04:37:51;;;;;;;10.20;8.73;;;;;;;;;;4882055;29;20612;-79
2021/03/07 04:40:19;;;;;;;10.07;7.80;;;;;;;;;;4911218;29;20239;-79
2021/03/07 04:42:48;;;;;;;9.50;7.77;;;;;;;;;;4918959;29;20216;-78
2021/03/07 04:48:27;;;;;;;10.13;7.97;;;;;;;;;;4879168;29;20232;-78
2021/03/07 04:50:56;;;;;;;9.57;8.03;;;;;;;;;;4882351;29;20217;-78
2021/03/07 04:53:49;;;;;;;11.50;7.93;;;;;;;;;;4864247;29;20229;-78
2021/03/07 04:56:17;;;;;;;10.57;7.90;;;;;;;;;;4876138;29;20245;-79
2021/03/07 04:58:45;;;;;;;10.33;8.13;;;;;;;;;;4872874;29;20577;-78
2021/03/07 05:01:14;;;;;;;10.40;8.13;;;;;;;;;;4874611;29;20221;-79
2021/03/07 05:03:42;;;;;;;10.40;7.63;;;;;;;;;;4862875;29;20232;-78
2021/03/07 05:06:12;;;;;;;10.73;7.93;;;;;;;;;;4863705;29;20233;-79
2021/03/07 05:08:40;;;;;;;10.97;7.93;;;;;;;;;;4880675;29;20221;-78
2021/03/07 05:11:09;;;;;;;11.17;8.70;;;;;;;;;;4880361;29;20205;-78
2021/03/07 05:13:38;;;;;;;9.73;7.87;;;;;;;;;;4880273;29;20210;-79
2021/03/07 05:16:06;;;;;;;10.30;8.00;;;;;;;;;;4880082;29;20232;-79
2021/03/07 05:18:34;;;;;;;11.43;8.33;;;;;;;;;;4880883;29;20209;-79
2021/03/07 05:21:04;;;;;;;10.47;8.93;;;;;;;;;;4864470;29;20234;-79
2021/03/07 05:23:32;;;;;;;9.47;8.27;;;;;;;;;;4881157;29;20212;-79
2021/03/07 05:26:00;;;;;;;10.73;8.13;;;;;;;;;;4879390;29;20731;-79
2021/03/07 05:28:30;;;;;;;11.40;8.87;;;;;;;;;;4879071;29;20577;-79
2021/03/07 05:30:58;;;;;;;12.70;9.10;;;;;;;;;;4878726;29;20220;-79
2021/03/07 05:33:27;;;;;;;13.23;9.17;;;;;;;;;;4861628;29;20754;-78
2021/03/07 05:35:55;;;;;;;10.97;8.37;;;;;;;;;;4845848;29;20229;-79
2021/03/07 05:38:24;;;;;;;10.97;8.97;;;;;;;;;;4858816;29;20233;-80
2021/03/07 05:40:52;;;;;;;12.40;8.67;;;;;;;;;;4863177;29;20211;-80
2021/03/07 05:43:24;;;;;;;9.90;8.00;;;;;;;;;;4879461;29;20213;-79
2021/03/07 05:45:56;;;;;;;11.50;8.40;;;;;;;;;;4870563;29;20821;-79
2021/03/07 05:48:55;;;;;;;11.77;9.20;;;;;;;;;;4859972;29;20242;-79
2021/03/07 05:51:27;;;;;;;10.17;8.00;;;;;;;;;;4861489;29;20574;-78
2021/03/07 05:53:56;;;;;;;9.77;8.20;;;;;;;;;;4867073;29;20200;-79
2021/03/07 05:56:25;;;;;;;10.67;8.70;;;;;;;;;;4869764;29;20303;-82
2021/03/07 05:58:58;;;;;;;10.63;8.90;;;;;;;;;;4895026;29;20210;-79
2021/03/07 06:01:27;;;;;;;11.43;8.23;;;;;;;;;;4869029;29;20209;-79
2021/03/07 06:04:02;;;;;;;10.50;8.40;;;;;;;;;;4881925;29;20216;-79
2021/03/07 06:06:33;;;;;;;9.83;7.87;;;;;;;;;;4866125;29;20248;-79
2021/03/07 06:09:20;;;;;;;10.20;8.07;;;;;;;;;;4860627;29;20226;-78
2021/03/07 06:12:29;;;;;;;13.37;10.10;;;;;;;;;;4847272;29;20202;-79
2021/03/07 06:15:01;;;;;;;13.37;11.10;;;;;;;;;;4870300;29;20245;-79
2021/03/07 06:17:40;;;;;;;16.47;11.37;;;;;;;;;;4906066;29;20224;-80
2021/03/07 06:20:12;;;;;;;13.63;10.80;;;;;;;;;;4903222;29;20204;-79
2021/03/07 06:22:52;;;;;;;15.73;11.87;;;;;;;;;;4863452;29;20212;-78
2021/03/07 06:25:22;;;;;;;14.07;10.97;;;;;;;;;;4893750;29;20247;-79
2021/03/07 06:27:51;;;;;;;15.00;11.23;;;;;;;;;;4891958;29;20369;-79
2021/03/07 06:30:21;;;;;;;13.90;10.67;;;;;;;;;;4872227;29;20220;-79
2021/03/07 06:32:53;;;;;;;15.07;11.33;;;;;;;;;;4882746;29;20237;-78
2021/03/07 07:14:14;;;;;;;9.50;8.27;;;;;;;;;;1722454;24;20552;-81
2021/03/07 07:16:43;;;;;;;10.83;8.67;;;;;;;;;;4788690;29;20613;-79
2021/03/07 07:19:12;;;;;;;10.20;8.67;;;;;;;;;;4792940;30;20219;-78
2021/03/07 07:21:40;;;;;;;10.13;8.60;;;;;;;;;;4794382;30;20213;-79
2021/03/07 07:24:09;;;;;;;10.83;7.80;;;;;;;;;;4782148;30;20217;-80
2021/03/07 07:26:37;;;;;;;10.13;8.37;;;;;;;;;;4794044;30;20229;-79
2021/03/07 07:29:05;;;;;;;10.47;7.83;;;;;;;;;;4791922;30;20576;-79
2021/03/07 07:31:36;;;;;;;11.17;8.90;;;;;;;;;;4781471;30;20236;-80
2021/03/07 07:34:11;;;;;;;11.87;8.20;;;;;;;;;;4790393;30;20244;-79
2021/03/07 07:36:57;;;;;;;11.80;9.00;;;;;;;;;;4791184;30;20231;-79
2021/03/07 07:39:29;;;;;;;11.10;8.87;;;;;;;;;;4789681;30;20668;-79
2021/03/07 07:41:57;;;;;;;12.00;8.97;;;;;;;;;;4789965;30;20201;-79
2021/03/07 07:56:41;;;;;;;11.97;8.93;;;;;;;;;;5506448;24;20991;-79
2021/03/07 07:59:11;;;;;;;13.30;7.90;;;;;;;;;;4792834;29;20248;-79
2021/03/07 08:01:50;;;;;;;12.77;8.00;;;;;;;;;;4796320;30;20220;-81
2021/03/07 08:04:36;;;;;;;12.67;8.20;;;;;;;;;;4792079;29;20302;-79
2021/03/07 08:07:05;;;;;;;12.50;8.53;;;;;;;;;;4758412;30;20213;-80
2021/03/07 08:09:45;;;;;;;12.83;8.00;;;;;;;;;;4742211;30;20225;-81
2021/03/07 08:12:50;;;;;;;12.30;8.63;;;;;;;;;;4773448;30;20213;-79
2021/03/07 08:15:40;;;;;;;13.80;7.73;;;;;;;;;;4775643;30;20252;-80
2021/03/07 08:18:10;;;;;;;11.47;8.50;;;;;;;;;;4751608;30;20674;-83
2021/03/07 08:21:01;;;;;;;12.87;9.07;;;;;;;;;;4741308;30;20223;-79
2021/03/07 08:23:29;;;;;;;13.23;8.80;;;;;;;;;;4757175;30;20613;-80
2021/03/07 08:25:58;;;;;;;11.93;8.57;;;;;;;;;;4757280;30;20234;-80
2021/03/07 08:28:43;;;;;;;12.60;8.47;;;;;;;;;;4772270;30;20579;-80
2021/03/07 08:31:35;;;;;;;11.07;8.30;;;;;;;;;;4770197;29;20237;-79
2021/03/07 08:34:22;;;;;;;12.13;8.10;;;;;;;;;;4762446;29;20233;-81
2021/03/07 08:37:00;;;;;;;13.97;8.07;;;;;;;;;;4770157;30;20233;-81
2021/03/07 08:39:29;;;;;;;10.73;8.23;;;;;;;;;;4741328;30;20233;-80
2021/03/07 08:42:04;;;;;;;12.17;8.43;;;;;;;;;;4768916;30;20709;-79
2021/03/07 08:44:32;;;;;;;11.27;8.40;;;;;;;;;;4752188;30;20210;-82
2021/03/07 08:47:00;;;;;;;12.63;8.47;;;;;;;;;;4761952;29;20229;-79
2021/03/07 08:49:30;;;;;;;12.30;9.20;;;;;;;;;;4769449;30;20245;-79
2021/03/07 08:52:00;;;;;;;13.47;9.70;;;;;;;;;;4770762;29;20240;-80
2021/03/07 08:54:30;;;;;;;14.60;9.50;;;;;;;;;;4758501;30;20237;-80
2021/03/07 08:57:04;;;;;;;12.80;9.30;;;;;;;;;;4762706;30;20234;-80
2021/03/07 08:59:34;;;;;;;12.63;9.40;;;;;;;;;;4764856;30;20251;-81
2021/03/07 09:02:04;;;;;;;12.37;9.40;;;;;;;;;;4735554;30;20709;-80
2021/03/07 09:04:56;;;;;;;11.87;9.43;;;;;;;;;;4761334;30;20213;-79
2021/03/07 09:08:46;;;;;;;13.30;9.47;;;;;;;;;;4771637;29;20190;-89
2021/03/07 09:11:20;;;;;;;15.10;10.67;;;;;;;;;;4777645;29;20237;-91
2021/03/07 09:14:54;;;;;;;12.83;9.73;;;;;;;;;;4772139;30;20238;-89
2021/03/07 09:17:36;;;;;;;14.03;9.33;;;;;;;;;;4788464;29;20197;-89
2021/03/07 09:20:07;;;;;;;11.50;9.30;;;;;;;;;;4776883;29;20241;-83
2021/03/07 09:22:37;;;;;;;14.60;9.67;;;;;;;;;;4768466;30;20199;-81
2021/03/07 09:25:09;;;;;;;14.53;9.43;;;;;;;;;;4768485;29;20268;-83
2021/03/07 09:27:39;;;;;;;16.63;11.57;;;;;;;;;;4751576;30;20218;-83
2021/03/07 09:30:13;;;;;;;13.83;9.53;;;;;;;;;;4779082;29;20209;-83
2021/03/07 09:33:09;;;;;;;17.03;12.10;;;;;;;;;;4742008;30;20233;-79
2021/03/07 09:35:37;;;;;;;15.33;10.70;;;;;;;;;;4751495;29;20697;-80
2021/03/07 09:38:16;;;;;;;15.17;11.20;;;;;;;;;;4753079;29;20233;-79
2021/03/07 09:40:45;;;;;;;12.77;10.30;;;;;;;;;;4752357;30;20719;-82
2021/03/07 09:43:41;;;;;;;14.57;10.80;;;;;;;;;;4755603;30;20234;-79
2021/03/07 09:46:26;;;;;;;15.73;10.20;;;;;;;;;;4748226;30;20244;-79
2021/03/07 09:48:58;;;;;;;17.23;11.70;;;;;;;;;;4743007;30;20229;-83
2021/03/07 09:51:30;;;;;;;13.77;10.47;;;;;;;;;;4763922;30;20250;-80
2021/03/07 09:53:59;;;;;;;15.70;11.13;;;;;;;;;;4749967;30;20236;-81
2021/03/07 09:56:35;;;;;;;15.30;11.63;;;;;;;;;;4752670;30;20244;-80
2021/03/07 09:59:11;;;;;;;13.70;10.30;;;;;;;;;;4762757;30;20237;-80
2021/03/07 10:01:44;;;;;;;17.47;11.77;;;;;;;;;;4762519;30;20210;-79
2021/03/07 10:07:35;;;;;;;16.20;11.50;;;;;;;;;;5266148;24;20232;-79
2021/03/07 10:10:07;;;;;;;16.43;11.20;;;;;;;;;;4799593;29;20229;-79
2021/03/07 10:12:42;;;;;;;18.77;13.00;;;;;;;;;;4783637;29;20243;-79
2021/03/07 10:15:12;;;;;;;17.40;12.00;;;;;;;;;;4785803;30;20237;-79
2021/03/07 10:17:42;;;;;;;16.97;12.67;;;;;;;;;;4782700;30;20680;-79
2021/03/07 10:20:13;;;;;;;23.07;14.47;;;;;;;;;;4761286;30;20610;-79
2021/03/07 10:22:44;;;;;;;20.07;13.63;;;;;;;;;;4787024;29;20213;-79
2021/03/07 10:25:23;;;;;;;22.47;14.00;;;;;;;;;;4769267;29;20248;-79
2021/03/07 10:27:58;;;;;;;19.33;13.73;;;;;;;;;;4754225;30;20728;-85
2021/03/07 10:30:35;;;;;;;19.77;13.70;;;;;;;;;;4754300;30;20720;-81
2021/03/07 10:33:53;;;;;;;21.17;14.07;;;;;;;;;;4763859;29;20240;-78
2021/03/07 10:36:42;;;;;;;22.10;15.37;;;;;;;;;;4757048;30;20255;-79
2021/03/07 10:39:21;;;;;;;22.27;15.30;;;;;;;;;;4755840;29;20237;-79
2021/03/07 10:46:36;;;;;;;20.93;14.53;;;;;;;;;;4749654;29;20245;-86
2021/03/07 10:49:20;;;;;;;23.10;15.03;;;;;;;;;;4767799;30;20233;-78
2021/03/07 10:51:48;;;;;;;20.87;15.63;;;;;;;;;;4779084;29;20241;-81
2021/03/07 10:54:16;;;;;;;21.20;15.17;;;;;;;;;;4766115;29;20236;-79
2021/03/07 10:56:43;;;;;;;22.23;16.27;;;;;;;;;;4759045;30;20244;-79
2021/03/07 10:59:12;;;;;;;24.47;16.00;;;;;;;;;;4769630;29;20316;-78
2021/03/07 11:01:39;;;;;;;20.97;16.20;;;;;;;;;;4763617;30;20240;-79
2021/03/07 11:04:08;;;;;;;24.30;17.77;;;;;;;;;;4771066;29;20233;-79
2021/03/07 11:06:36;;;;;;;22.00;16.43;;;;;;;;;;4767936;30;20241;-79
2021/03/07 11:09:05;;;;;;;24.20;17.73;;;;;;;;;;4767707;29;20237;-79
2021/03/07 11:11:33;;;;;;;27.13;19.10;;;;;;;;;;4768170;30;20234;-79
2021/03/07 11:14:01;;;;;;;25.07;18.37;;;;;;;;;;4764781;30;20238;-82
2021/03/07 11:16:29;;;;;;;23.70;18.70;;;;;;;;;;4751095;30;20238;-79
2021/03/07 11:19:15;;;;;;;24.90;18.93;;;;;;;;;;4764261;29;20322;-82
2021/03/07 11:21:43;;;;;;;25.60;18.50;;;;;;;;;;4766546;30;20238;-81
2021/03/07 11:24:11;;;;;;;25.37;18.73;;;;;;;;;;4770929;29;20358;-79
2021/03/07 11:26:38;;;;;;;25.53;18.67;;;;;;;;;;4768547;30;20240;-79
2021/03/07 11:29:06;;;;;;;25.40;17.70;;;;;;;;;;4770264;29;20239;-80
2021/03/07 11:31:33;;;;;;;22.83;17.87;;;;;;;;;;4768762;30;20246;-86
2021/03/07 11:34:01;;;;;;;23.03;17.67;;;;;;;;;;4770459;30;20364;-81
2021/03/07 11:36:29;;;;;;;26.87;18.63;;;;;;;;;;4781738;30;20241;-79
2021/03/07 11:38:57;;;;;;;26.57;19.37;;;;;;;;;;4782924;29;20231;-85
2021/03/07 11:41:25;;;;;;;23.43;18.47;;;;;;;;;;4775976;29;20237;-80
2021/03/07 11:43:53;;;;;;;24.97;18.97;;;;;;;;;;4779082;29;20226;-79
2021/03/07 11:46:20;;;;;;;22.37;17.10;;;;;;;;;;4762273;30;20249;-81
2021/03/07 11:48:48;;;;;;;23.20;17.87;;;;;;;;;;4769447;30;20240;-87
2021/03/07 11:51:16;;;;;;;22.83;17.97;;;;;;;;;;4766555;30;20244;-88
2021/03/07 11:53:56;;;;;;;23.00;17.33;;;;;;;;;;4764759;29;20244;-80
2021/03/07 11:57:08;;;;;;;22.43;16.83;;;;;;;;;;4750766;29;20233;-79
2021/03/07 11:59:36;;;;;;;21.80;16.93;;;;;;;;;;4767865;29;20228;-80
2021/03/07 12:03:14;;;;;;;22.00;17.27;;;;;;;;;;4744022;30;20241;-84
2021/03/07 12:05:44;;;;;;;22.97;17.53;;;;;;;;;;4756439;30;20248;-86
2021/03/07 12:08:14;;;;;;;24.97;18.20;;;;;;;;;;4768978;29;20226;-92
2021/03/07 12:10:43;;;;;;;22.77;17.40;;;;;;;;;;4784190;29;20239;-92
2021/03/07 12:13:13;;;;;;;21.87;16.83;;;;;;;;;;4761711;29;20728;-80
2021/03/07 12:15:43;;;;;;;23.27;17.70;;;;;;;;;;4750743;30;20836;-80
2021/03/07 12:18:13;;;;;;;24.80;17.87;;;;;;;;;;4729330;29;20245;-80
2021/03/07 12:20:41;;;;;;;22.93;18.10;;;;;;;;;;4767025;30;20230;-80
2021/03/07 12:23:11;;;;;;;24.50;18.37;;;;;;;;;;4745415;29;20637;-85
2021/03/07 12:25:44;;;;;;;23.20;17.37;;;;;;;;;;4741890;30;20708;-81
2021/03/07 12:28:40;;;;;;;22.30;17.33;;;;;;;;;;4729626;30;20836;-80
2021/03/07 12:35:17;;;;;;;21.00;17.23;;;;;;;;;;4738500;29;20259;-80
2021/03/07 12:37:53;;;;;;;20.60;17.07;;;;;;;;;;4758110;29;20503;-85
2021/03/07 12:40:24;;;;;;;21.90;17.50;;;;;;;;;;4733712;30;20740;-82
2021/03/07 12:42:52;;;;;;;20.63;17.43;;;;;;;;;;4763348;29;20229;-83
2021/03/07 12:49:13;;;;;;;22.67;17.20;;;;;;;;;;4731702;30;20229;-79
2021/03/07 12:52:11;;;;;;;21.50;17.10;;;;;;;;;;4754290;30;20230;-82
2021/03/07 12:54:39;;;;;;;22.87;17.73;;;;;;;;;;4734693;30;20245;-83
2021/03/07 12:57:08;;;;;;;25.30;19.17;;;;;;;;;;4771621;29;20232;-80
2021/03/07 12:59:35;;;;;;;25.37;18.53;;;;;;;;;;4768722;30;20230;-85
2021/03/07 13:02:03;;;;;;;22.43;17.07;;;;;;;;;;4757011;29;20704;-81
2021/03/07 13:04:33;;;;;;;22.53;17.93;;;;;;;;;;4763879;30;20222;-83
2021/03/07 13:07:01;;;;;;;28.13;18.67;;;;;;;;;;4764394;29;20760;-81
2021/03/07 13:09:28;;;;;;;20.70;17.57;;;;;;;;;;4765306;30;20237;-86
2021/03/07 13:11:57;;;;;;;21.73;17.70;;;;;;;;;;4748241;29;20237;-80
2021/03/07 13:14:25;;;;;;;23.57;18.37;;;;;;;;;;4763449;29;20242;-81
2021/03/07 13:16:52;;;;;;;22.37;18.10;;;;;;;;;;4764064;29;20228;-81
2021/03/07 13:19:20;;;;;;;22.43;18.23;;;;;;;;;;4748607;30;20237;-87
2021/03/07 13:21:48;;;;;;;22.00;17.93;;;;;;;;;;4767289;29;20244;-79
2021/03/07 13:24:15;;;;;;;22.43;17.90;;;;;;;;;;4771703;29;20229;-80
2021/03/07 13:26:43;;;;;;;22.00;18.00;;;;;;;;;;4752180;30;20230;-85
2021/03/07 13:29:12;;;;;;;22.37;19.20;;;;;;;;;;4759145;29;20709;-80
2021/03/07 13:31:42;;;;;;;24.97;18.97;;;;;;;;;;4753169;30;20244;-85
2021/03/07 13:34:13;;;;;;;24.43;18.57;;;;;;;;;;4740714;30;20234;-79
2021/03/07 13:40:16;;;;;;;22.17;18.57;;;;;;;;;;4755752;29;20250;-79
2021/03/07 13:42:43;;;;;;;22.23;18.20;;;;;;;;;;4761435;30;20234;-80
2021/03/07 13:45:15;;;;;;;20.87;17.93;;;;;;;;;;4761593;29;20234;-83
2021/03/07 13:48:07;;;;;;;22.57;17.67;;;;;;;;;;4769420;29;20263;-82
2021/03/07 13:50:35;;;;;;;21.33;18.23;;;;;;;;;;4758392;29;20230;-81
2021/03/07 13:53:04;;;;;;;21.43;18.20;;;;;;;;;;4758151;29;20229;-80
2021/03/07 13:55:32;;;;;;;20.67;18.07;;;;;;;;;;4761265;30;20230;-82
2021/03/07 13:58:00;;;;;;;21.83;18.03;;;;;;;;;;4765223;29;20225;-80
2021/03/07 14:00:27;;;;;;;20.70;18.03;;;;;;;;;;4762009;29;20233;-84
2021/03/07 14:02:58;;;;;;;19.67;17.07;;;;;;;;;;4762511;29;20229;-84
2021/03/07 14:05:26;;;;;;;21.97;17.17;;;;;;;;;;4737799;30;20241;-80
2021/03/07 14:07:53;;;;;;;23.87;17.60;;;;;;;;;;4762988;29;20697;-82
2021/03/07 14:10:22;;;;;;;23.20;18.60;;;;;;;;;;4763856;30;20245;-85
2021/03/07 14:12:50;;;;;;;20.07;17.23;;;;;;;;;;4751009;30;20241;-86
2021/03/07 14:15:18;;;;;;;20.03;16.83;;;;;;;;;;4741636;29;20241;-80
2021/03/07 14:17:46;;;;;;;21.20;17.13;;;;;;;;;;4755687;30;20228;-82
2021/03/07 14:20:16;;;;;;;22.20;17.40;;;;;;;;;;4749491;29;20234;-81
2021/03/07 14:22:44;;;;;;;20.83;17.10;;;;;;;;;;4765082;30;20751;-83
2021/03/07 14:25:13;;;;;;;22.07;17.67;;;;;;;;;;4750598;29;20818;-81
2021/03/07 14:27:42;;;;;;;22.37;18.60;;;;;;;;;;4780147;29;20234;-80
2021/03/07 14:30:11;;;;;;;23.70;17.20;;;;;;;;;;4776346;29;20661;-79
2021/03/07 14:32:39;;;;;;;21.50;17.87;;;;;;;;;;4770500;30;20257;-79
2021/03/07 14:35:09;;;;;;;23.50;17.30;;;;;;;;;;4755739;30;20396;-79
2021/03/07 14:37:37;;;;;;;21.27;17.23;;;;;;;;;;4741502;30;20234;-81
2021/03/07 14:40:05;;;;;;;26.23;17.30;;;;;;;;;;4764742;29;20698;-81
2021/03/07 14:42:33;;;;;;;22.37;17.23;;;;;;;;;;4766233;30;20240;-82
2021/03/07 14:45:02;;;;;;;22.23;18.10;;;;;;;;;;4753380;29;20230;-81
2021/03/07 14:47:29;;;;;;;23.60;18.20;;;;;;;;;;4744533;30;20233;-82
2021/03/07 14:49:57;;;;;;;22.23;17.30;;;;;;;;;;4751542;29;20239;-80
2021/03/07 14:52:25;;;;;;;21.87;17.20;;;;;;;;;;4762038;30;20236;-80
2021/03/07 14:54:52;;;;;;;24.20;17.50;;;;;;;;;;4763440;30;20241;-82
2021/03/07 14:57:20;;;;;;;26.00;18.17;;;;;;;;;;4753344;30;20229;-84
2021/03/07 14:59:47;;;;;;;25.43;17.70;;;;;;;;;;4766770;29;20225;-85
2021/03/07 15:02:16;;;;;;;21.63;16.83;;;;;;;;;;4791258;29;20244;-91
2021/03/07 15:04:43;;;;;;;20.63;17.27;;;;;;;;;;4795402;29;20236;-85
2021/03/07 15:07:11;;;;;;;24.07;17.53;;;;;;;;;;4782588;29;20245;-80
2021/03/07 15:09:38;;;;;;;24.27;17.83;;;;;;;;;;4766303;30;20236;-86
2021/03/07 15:12:06;;;;;;;23.70;17.40;;;;;;;;;;4759666;29;20241;-80
2021/03/07 15:14:34;;;;;;;23.87;17.37;;;;;;;;;;4779723;29;20614;-80
2021/03/07 15:17:02;;;;;;;23.90;17.40;;;;;;;;;;4748265;29;20242;-78
2021/03/07 15:19:30;;;;;;;26.53;17.03;;;;;;;;;;4771678;29;20226;-80
2021/03/07 15:22:09;;;;;;;22.07;16.30;;;;;;;;;;4755161;29;20620;-83
2021/03/07 15:24:36;;;;;;;22.30;15.93;;;;;;;;;;4761702;29;20272;-79
2021/03/07 15:27:05;;;;;;;22.70;16.30;;;;;;;;;;4766185;29;20230;-79
2021/03/07 15:29:33;;;;;;;21.10;15.63;;;;;;;;;;4781808;29;20234;-81
2021/03/07 15:32:01;;;;;;;22.83;16.23;;;;;;;;;;4765332;29;20592;-79
2021/03/07 15:34:28;;;;;;;21.13;15.43;;;;;;;;;;4768462;30;20233;-82
2021/03/07 15:36:56;;;;;;;23.17;16.37;;;;;;;;;;4750581;29;20716;-79
2021/03/07 15:39:24;;;;;;;22.43;15.93;;;;;;;;;;4763597;30;20234;-79
2021/03/07 15:41:51;;;;;;;20.00;14.50;;;;;;;;;;4764844;30;20253;-82
2021/03/07 15:44:19;;;;;;;21.40;15.23;;;;;;;;;;4781019;29;20230;-91
2021/03/07 15:46:46;;;;;;;25.93;15.63;;;;;;;;;;4803851;29;20229;-78
2021/03/07 15:49:14;;;;;;;23.43;15.90;;;;;;;;;;4772242;29;20240;-91
2021/03/07 15:51:42;;;;;;;20.87;14.53;;;;;;;;;;4803309;29;20217;-90
2021/03/07 15:54:11;;;;;;;23.83;15.23;;;;;;;;;;4760151;29;20245;-82
2021/03/07 15:56:38;;;;;;;18.87;14.00;;;;;;;;;;4744727;30;20257;-80
2021/03/07 16:02:08;;;;;;;18.90;13.67;;;;;;;;;;4740386;29;20230;-80
2021/03/07 16:04:36;;;;;;;19.63;13.33;;;;;;;;;;4758380;30;20242;-81
2021/03/07 16:07:04;;;;;;;21.00;14.10;;;;;;;;;;4727748;30;20250;-85
2021/03/07 16:09:32;;;;;;;21.20;13.70;;;;;;;;;;4742449;30;20255;-82
2021/03/07 16:12:00;;;;;;;19.27;13.70;;;;;;;;;;4742757;30;20231;-80
2021/03/07 16:14:47;;;;;;;19.27;13.30;;;;;;;;;;4743438;30;20235;-87
2021/03/07 16:17:15;;;;;;;19.87;13.87;;;;;;;;;;4743932;30;20241;-79
2021/03/07 16:19:43;;;;;;;20.67;13.70;;;;;;;;;;4728862;30;20238;-79
2021/03/07 16:22:11;;;;;;;23.57;13.47;;;;;;;;;;4726612;30;20237;-79
2021/03/07 16:24:43;;;;;;;20.00;13.10;;;;;;;;;;4728087;30;20234;-86
2021/03/07 16:27:11;;;;;;;22.50;12.97;;;;;;;;;;4746246;30;20238;-82
2021/03/07 16:29:50;;;;;;;22.10;13.53;;;;;;;;;;4749179;30;20234;-84
2021/03/07 16:32:20;;;;;;;20.57;13.47;;;;;;;;;;4745598;30;20243;-83
2021/03/07 16:34:48;;;;;;;18.63;12.77;;;;;;;;;;4749642;30;20321;-80
2021/03/07 16:37:24;;;;;;;19.80;11.67;;;;;;;;;;4731703;30;20229;-82
2021/03/07 16:40:09;;;;;;;19.33;11.47;;;;;;;;;;4747324;30;20238;-80
2021/03/07 16:42:42;;;;;;;15.27;11.10;;;;;;;;;;4747908;30;20240;-80
2021/03/07 16:45:29;;;;;;;22.03;11.63;;;;;;;;;;4734802;30;20238;-82
2021/03/07 16:47:57;;;;;;;14.53;10.90;;;;;;;;;;4729030;30;20237;-83